createdAt,value
2023-01-17T00:01:50.365Z,31.90
2023-01-17T00:04:36.189Z,35.28
2023-01-17T00:07:21.608Z,30.13
2023-01-17T00:09:54.709Z,28.00
2023-01-17T00:12:22.587Z,32.28
2023-01-17T00:14:49.654Z,29.95
2023-01-17T00:17:16.883Z,28.95
2023-01-17T00:20:02.247Z,26.65
2023-01-17T00:22:50.122Z,24.75
2023-01-17T00:25:38.782Z,28.80
2023-01-17T00:28:06.090Z,36.08
2023-01-17T00:30:33.565Z,31.05
2023-01-17T00:33:01.809Z,29.65
2023-01-17T00:35:31.249Z,33.40
2023-01-17T00:38:07.216Z,28.90
2023-01-17T00:40:36.118Z,27.35
2023-01-17T00:43:22.187Z,25.98
2023-01-17T00:46:07.926Z,25.20
2023-01-17T00:48:54.390Z,24.33
2023-01-17T00:51:40.973Z,30.27
2023-01-17T00:54:26.955Z,26.45
2023-01-17T00:57:13.244Z,30.10
2023-01-17T00:59:58.756Z,28.42
2023-01-17T01:02:44.787Z,28.25
2023-01-17T01:05:32.366Z,31.45
2023-01-17T01:08:18.459Z,26.80
2023-01-17T01:11:05.068Z,27.40
2023-01-17T01:13:51.456Z,27.85
2023-01-17T01:16:38.057Z,24.35
2023-01-17T01:19:35.400Z,32.15
2023-01-17T01:22:20.886Z,22.52
2023-01-17T01:25:06.362Z,22.40
2023-01-17T01:27:52.056Z,19.70
2023-01-17T01:30:37.586Z,21.77
2023-01-17T01:33:21.610Z,23.98
2023-01-17T01:35:54.054Z,22.30
2023-01-17T01:38:23.666Z,22.10
2023-01-17T01:40:53.358Z,23.10
2023-01-17T01:43:42.785Z,20.83
2023-01-17T01:46:13.379Z,22.23
2023-01-17T01:49:06.177Z,23.67
2023-01-17T01:51:43.300Z,21.98
2023-01-17T01:54:25.859Z,24.65
2023-01-17T01:56:54.779Z,21.50
2023-01-17T01:59:23.414Z,23.33
2023-01-17T02:01:53.206Z,25.73
2023-01-17T02:04:21.688Z,22.20
2023-01-17T02:06:53.946Z,23.07
2023-01-17T02:09:20.952Z,20.35
2023-01-17T02:11:50.275Z,24.33
2023-01-17T02:14:22.048Z,22.77
2023-01-17T02:17:09.708Z,23.50
2023-01-17T02:19:52.217Z,21.80
2023-01-17T02:22:40.632Z,25.02
2023-01-17T02:25:10.700Z,23.87
2023-01-17T02:27:53.095Z,25.40
2023-01-17T02:30:52.086Z,23.27
2023-01-17T02:33:33.774Z,21.55
2023-01-17T02:36:44.704Z,21.25
2023-01-17T02:39:38.085Z,24.77
2023-01-17T02:42:10.277Z,23.80
2023-01-17T02:44:44.465Z,21.83
2023-01-17T02:47:26.660Z,24.23
2023-01-17T02:50:03.539Z,23.85
2023-01-17T02:52:55.736Z,24.92
2023-01-17T02:55:41.081Z,23.75
2023-01-17T02:58:39.760Z,23.67
2023-01-17T03:01:35.012Z,24.10
2023-01-17T03:04:12.895Z,23.05
2023-01-17T03:06:56.744Z,22.88
2023-01-17T03:09:25.669Z,24.98
2023-01-17T03:11:53.104Z,21.52
2023-01-17T03:14:20.458Z,22.55
2023-01-17T03:16:47.719Z,24.77
2023-01-17T03:19:17.395Z,23.40
2023-01-17T03:21:44.351Z,21.38
2023-01-17T03:24:11.279Z,23.80
2023-01-17T03:26:38.273Z,23.40
2023-01-17T03:29:05.224Z,23.83
2023-01-17T03:31:32.210Z,23.63
2023-01-17T03:33:59.220Z,23.38
2023-01-17T03:36:26.102Z,24.55
2023-01-17T03:38:53.148Z,26.20
2023-01-17T03:41:20.185Z,23.75
2023-01-17T03:43:47.235Z,24.20
2023-01-17T03:46:23.507Z,22.65
2023-01-17T03:48:51.071Z,22.23
2023-01-17T03:51:19.085Z,24.67
2023-01-17T03:53:52.132Z,22.85
2023-01-17T03:56:19.277Z,22.60
2023-01-17T03:58:46.097Z,20.77
2023-01-17T04:01:13.519Z,20.58
2023-01-17T04:03:40.819Z,20.95
2023-01-17T04:06:07.833Z,24.13
2023-01-17T04:08:34.907Z,23.45
2023-01-17T04:11:02.364Z,24.58
2023-01-17T04:13:29.731Z,21.63
2023-01-17T04:15:56.785Z,22.70
2023-01-17T04:18:24.612Z,23.38
2023-01-17T04:20:51.749Z,22.88
2023-01-17T04:23:19.170Z,25.85
2023-01-17T04:25:48.103Z,22.80
2023-01-17T04:28:15.133Z,23.05
2023-01-17T04:30:42.179Z,23.95
2023-01-17T04:33:09.241Z,21.52
2023-01-17T04:35:36.315Z,25.08
2023-01-17T04:38:03.352Z,23.60
2023-01-17T04:40:30.321Z,25.55
2023-01-17T04:42:58.319Z,23.20
2023-01-17T04:45:25.536Z,23.27
2023-01-17T04:47:52.598Z,22.20
2023-01-17T04:50:19.835Z,21.65
2023-01-17T04:52:46.739Z,22.23
2023-01-17T04:55:13.843Z,25.50
2023-01-17T04:57:40.790Z,22.77
2023-01-17T05:00:08.626Z,22.58
2023-01-17T05:02:35.619Z,22.45
2023-01-17T05:05:02.588Z,20.52
2023-01-17T05:07:30.472Z,22.63
2023-01-17T05:09:57.777Z,21.98
2023-01-17T05:12:24.681Z,21.27
2023-01-17T05:14:51.689Z,23.02
2023-01-17T05:17:18.940Z,21.15
2023-01-17T05:19:46.359Z,21.88
2023-01-17T05:22:17.193Z,20.70
2023-01-17T05:24:46.452Z,24.52
2023-01-17T05:27:14.730Z,21.30
2023-01-17T05:29:41.856Z,28.73
2023-01-17T05:32:08.806Z,22.70
2023-01-17T05:34:35.789Z,20.73
2023-01-17T05:37:02.673Z,23.23
2023-01-17T05:39:31.081Z,21.92
2023-01-17T05:41:59.266Z,21.47
2023-01-17T05:44:27.709Z,21.08
2023-01-17T05:46:55.911Z,19.83
2023-01-17T05:49:23.023Z,21.52
2023-01-17T05:51:50.166Z,21.08
2023-01-17T05:54:17.206Z,23.80
2023-01-17T05:56:46.792Z,19.67
2023-01-17T05:59:17.249Z,25.75
2023-01-17T06:01:46.489Z,25.23
2023-01-17T06:04:13.848Z,19.75
2023-01-17T06:06:40.866Z,22.73
2023-01-17T06:09:07.871Z,21.70
2023-01-17T06:11:34.889Z,20.55
2023-01-17T06:14:01.743Z,20.77
2023-01-17T06:16:29.869Z,22.15
2023-01-17T06:18:56.867Z,22.10
2023-01-17T06:21:23.913Z,21.65
2023-01-17T06:23:50.897Z,20.73
2023-01-17T06:26:17.889Z,21.00
2023-01-17T06:28:44.843Z,21.40
2023-01-17T06:31:11.920Z,20.00
2023-01-17T06:33:38.916Z,23.20
2023-01-17T06:36:06.543Z,21.20
2023-01-17T06:38:33.555Z,21.00
2023-01-17T06:41:04.388Z,21.88
2023-01-17T06:43:33.757Z,17.20
2023-01-17T06:46:01.594Z,21.48
2023-01-17T06:48:28.713Z,17.88
2023-01-17T06:50:57.563Z,21.60
2023-01-17T06:53:24.748Z,21.98
2023-01-17T06:55:52.613Z,21.75
2023-01-17T06:58:19.498Z,23.35
2023-01-17T07:00:46.609Z,23.13
2023-01-17T07:03:22.177Z,22.33
2023-01-17T07:05:50.134Z,21.85
2023-01-17T07:08:18.131Z,24.27
2023-01-17T07:10:49.250Z,24.13
2023-01-17T07:13:16.457Z,19.27
2023-01-17T07:15:43.564Z,19.83
2023-01-17T07:18:10.412Z,20.63
2023-01-17T07:20:38.547Z,21.02
2023-01-17T07:23:06.781Z,19.88
2023-01-17T07:25:33.811Z,20.48
2023-01-17T07:28:00.762Z,18.05
2023-01-17T07:30:27.991Z,17.45
2023-01-17T07:32:55.757Z,14.57
2023-01-17T07:35:26.756Z,12.63
2023-01-17T07:37:54.704Z,11.90
2023-01-17T07:40:23.441Z,22.75
2023-01-17T07:42:50.381Z,13.17
2023-01-17T07:45:17.727Z,9.90
2023-01-17T07:47:45.218Z,7.70
2023-01-17T07:50:13.685Z,9.57
2023-01-17T07:52:41.178Z,9.73
2023-01-17T07:55:09.720Z,8.20
2023-01-17T07:57:36.757Z,9.47
2023-01-17T08:00:05.161Z,9.63
2023-01-17T08:02:39.480Z,5.35
2023-01-17T08:05:06.844Z,7.47
2023-01-17T08:07:34.006Z,7.05
2023-01-17T08:10:01.590Z,6.65
2023-01-17T08:12:29.681Z,7.30
2023-01-17T08:14:56.755Z,6.05
2023-01-17T08:17:23.820Z,5.93
2023-01-17T08:19:52.200Z,4.97
2023-01-17T08:22:19.253Z,5.60
2023-01-17T08:24:46.247Z,3.95
2023-01-17T08:27:13.379Z,8.80
2023-01-17T08:29:46.861Z,7.03
2023-01-17T08:32:15.186Z,3.75
2023-01-17T08:34:42.455Z,4.90
2023-01-17T08:37:09.671Z,4.22
2023-01-17T08:39:36.787Z,6.10
2023-01-17T08:42:03.945Z,5.88
2023-01-17T08:44:31.187Z,3.38
2023-01-17T08:46:58.387Z,5.68
2023-01-17T08:49:25.533Z,3.65
2023-01-17T08:51:52.788Z,4.35
2023-01-17T08:54:19.951Z,4.05
2023-01-17T08:56:47.649Z,6.28
2023-01-17T08:59:14.824Z,3.60
2023-01-17T09:01:46.233Z,5.03
2023-01-17T09:04:15.149Z,3.63
2023-01-17T09:06:45.344Z,4.40
2023-01-17T09:09:13.962Z,5.63
2023-01-17T09:11:41.144Z,3.93
2023-01-17T09:14:08.155Z,2.45
2023-01-17T09:16:35.278Z,7.25
2023-01-17T09:19:02.405Z,3.88
2023-01-17T09:21:29.417Z,7.57
2023-01-17T09:23:56.473Z,7.43
2023-01-17T09:26:28.794Z,8.30
2023-01-17T09:28:56.908Z,10.45
2023-01-17T09:31:24.944Z,6.28
2023-01-17T09:33:53.388Z,3.85
2023-01-17T09:36:22.947Z,9.13
2023-01-17T09:38:55.385Z,5.60
2023-01-17T09:41:30.009Z,3.00
2023-01-17T09:44:02.927Z,3.80
2023-01-17T09:46:33.704Z,5.13
2023-01-17T09:49:17.871Z,5.93
2023-01-17T09:51:46.255Z,7.70
2023-01-17T09:54:23.025Z,7.30
2023-01-17T09:57:03.179Z,6.50
2023-01-17T10:00:02.983Z,7.25
2023-01-17T10:02:52.655Z,5.72
2023-01-17T10:05:44.569Z,10.10
2023-01-17T10:08:28.890Z,5.28
2023-01-17T10:11:19.363Z,4.60
2023-01-17T10:13:55.512Z,5.22
2023-01-17T10:16:32.019Z,7.10
2023-01-17T10:19:33.229Z,5.70
2023-01-17T10:22:15.646Z,5.18
2023-01-17T10:25:01.337Z,4.47
2023-01-17T10:27:34.118Z,5.55
2023-01-17T10:30:23.503Z,5.13
2023-01-17T10:32:50.808Z,6.38
2023-01-17T10:35:22.934Z,7.85
2023-01-17T10:37:56.719Z,6.75
2023-01-17T10:40:43.032Z,7.68
2023-01-17T10:43:44.215Z,6.43
2023-01-17T10:46:28.675Z,4.65
2023-01-17T10:48:56.851Z,3.10
2023-01-17T10:51:49.973Z,3.42
2023-01-17T10:54:36.144Z,3.33
2023-01-17T10:57:03.214Z,2.83
2023-01-17T10:59:33.597Z,7.72
2023-01-17T11:02:07.124Z,3.85
2023-01-17T11:04:47.497Z,3.00
2023-01-17T11:07:26.292Z,2.10
2023-01-17T11:09:56.404Z,2.97
2023-01-17T11:12:35.147Z,2.22
2023-01-17T11:15:11.302Z,2.47
2023-01-17T11:17:44.839Z,3.45
2023-01-17T11:20:12.340Z,1.70
2023-01-17T11:22:39.499Z,6.18
2023-01-17T11:25:07.255Z,2.97
2023-01-17T11:27:38.561Z,2.53
2023-01-17T11:30:18.352Z,6.53
2023-01-17T11:32:55.946Z,3.47
2023-01-17T11:35:26.847Z,2.35
2023-01-17T11:38:03.144Z,2.22
2023-01-17T11:40:36.627Z,1.13
2023-01-17T11:43:14.409Z,5.45
2023-01-17T11:45:42.052Z,2.25
2023-01-17T11:48:09.047Z,4.88
2023-01-17T11:50:57.869Z,3.38
2023-01-17T11:53:32.255Z,5.65
2023-01-17T11:55:59.319Z,2.55
2023-01-17T11:58:27.747Z,7.60
2023-01-17T12:01:10.727Z,2.00
2023-01-17T12:03:40.765Z,2.95
2023-01-17T12:06:25.134Z,3.30
2023-01-17T12:09:12.729Z,4.03
2023-01-17T12:12:18.285Z,4.38
2023-01-17T12:15:14.589Z,3.20
2023-01-17T12:18:06.202Z,3.35
2023-01-17T12:20:46.536Z,2.25
2023-01-17T12:23:51.129Z,8.93
2023-01-17T12:26:36.960Z,5.47
2023-01-17T12:29:28.896Z,6.63
2023-01-17T12:32:34.929Z,3.03
2023-01-17T12:35:27.546Z,5.93
2023-01-17T12:38:05.023Z,4.20
2023-01-17T12:40:39.580Z,5.75
2023-01-17T12:43:24.885Z,2.85
2023-01-17T12:45:52.866Z,3.35
2023-01-17T12:48:22.548Z,4.82
2023-01-17T12:51:29.081Z,4.05
2023-01-17T12:54:19.893Z,3.38
2023-01-17T12:56:58.077Z,3.72
2023-01-17T12:59:38.124Z,4.65
2023-01-17T13:02:20.717Z,5.43
2023-01-17T13:04:59.405Z,2.97
2023-01-17T13:07:47.639Z,2.83
2023-01-17T13:10:24.128Z,2.17
2023-01-17T13:12:51.877Z,3.63
2023-01-17T13:15:25.041Z,3.53
2023-01-17T13:18:03.017Z,6.35
2023-01-17T13:20:56.480Z,3.22
2023-01-17T13:23:40.262Z,2.70
2023-01-17T13:26:25.973Z,3.40
2023-01-17T13:29:16.015Z,3.15
2023-01-17T13:31:51.835Z,3.20
2023-01-17T13:34:53.419Z,4.25
2023-01-17T13:37:50.316Z,5.57
2023-01-17T13:40:31.095Z,1.73
2023-01-17T13:43:00.162Z,3.90
2023-01-17T13:45:31.177Z,5.40
2023-01-17T13:48:18.793Z,4.13
2023-01-17T13:50:49.587Z,4.80
2023-01-17T13:53:46.488Z,2.60
2023-01-17T13:56:19.636Z,3.88
2023-01-17T13:58:54.642Z,4.60
2023-01-17T14:01:24.592Z,3.63
2023-01-17T14:03:51.936Z,2.85
2023-01-17T14:06:44.908Z,1.48
2023-01-17T14:09:23.109Z,3.25
2023-01-17T14:12:14.115Z,5.90
2023-01-17T14:14:41.917Z,4.05
2023-01-17T14:17:36.533Z,3.47
2023-01-17T14:20:06.232Z,3.67
2023-01-17T14:22:41.588Z,2.47
2023-01-17T14:25:19.658Z,3.15
2023-01-17T14:27:50.485Z,5.45
2023-01-17T14:30:18.080Z,3.40
2023-01-17T14:33:16.076Z,4.05
2023-01-17T14:35:53.172Z,4.18
2023-01-17T14:38:34.260Z,2.25
2023-01-17T14:41:11.924Z,1.30
2023-01-17T14:43:42.443Z,6.25
2023-01-17T14:46:32.267Z,2.70
2023-01-17T14:49:05.874Z,9.32
2023-01-17T14:51:35.695Z,5.25
2023-01-17T14:54:13.594Z,3.38
2023-01-17T14:56:40.569Z,1.95
2023-01-17T14:59:22.297Z,1.77
2023-01-17T15:02:07.128Z,2.35
2023-01-17T15:04:39.763Z,3.92
2023-01-17T15:07:12.663Z,2.38
2023-01-17T15:09:43.185Z,3.28
2023-01-17T15:12:16.611Z,4.72
2023-01-17T15:14:45.909Z,4.68
2023-01-17T15:19:55.699Z,3.55
2023-01-17T15:24:51.005Z,3.08
2023-01-17T15:27:20.033Z,4.45
2023-01-17T15:29:48.609Z,3.10
2023-01-17T15:32:31.263Z,5.13
2023-01-17T15:35:02.523Z,5.68
2023-01-17T15:37:33.426Z,7.45
2023-01-17T15:40:16.831Z,7.55
2023-01-17T15:42:46.989Z,8.60
2023-01-17T15:45:29.057Z,5.25
2023-01-17T15:47:56.185Z,3.42
2023-01-17T15:50:30.543Z,5.68
2023-01-17T15:52:57.595Z,5.78
2023-01-17T15:55:30.655Z,6.30
2023-01-17T15:57:57.753Z,9.77
2023-01-17T16:00:37.804Z,10.07
2023-01-17T16:03:20.056Z,8.45
2023-01-17T16:05:48.304Z,10.70
2023-01-17T16:08:16.409Z,9.00
2023-01-17T16:10:44.334Z,5.82
2023-01-17T16:13:12.916Z,11.10
2023-01-17T16:15:42.320Z,12.65
2023-01-17T16:18:24.625Z,8.38
2023-01-17T16:21:05.583Z,10.43
2023-01-17T16:23:32.581Z,12.60
2023-01-17T16:25:59.556Z,9.60
2023-01-17T16:28:26.560Z,12.00
2023-01-17T16:30:54.063Z,11.65
2023-01-17T16:33:21.319Z,10.95
2023-01-17T16:35:51.323Z,10.65
2023-01-17T16:38:19.907Z,11.95
2023-01-17T16:40:48.005Z,9.73
2023-01-17T16:43:17.211Z,12.80
2023-01-17T16:45:52.234Z,12.88
2023-01-17T16:48:20.381Z,10.68
2023-01-17T16:50:50.807Z,13.82
2023-01-17T16:53:26.724Z,14.55
2023-01-17T16:55:57.869Z,17.13
2023-01-17T16:58:25.275Z,13.65
2023-01-17T17:00:52.547Z,15.75
2023-01-17T17:03:21.227Z,17.42
2023-01-17T17:05:56.606Z,15.63
2023-01-17T17:08:24.299Z,13.57
2023-01-17T17:10:51.659Z,17.25
2023-01-17T17:13:18.796Z,14.63
2023-01-17T17:15:46.073Z,14.23
2023-01-17T17:18:17.852Z,14.02
2023-01-17T17:20:46.165Z,13.40
2023-01-17T17:23:13.231Z,18.40
2023-01-17T17:25:40.310Z,13.05
2023-01-17T17:28:07.350Z,17.55
2023-01-17T17:30:36.144Z,15.38
2023-01-17T17:33:04.681Z,12.85
2023-01-17T17:35:34.797Z,33.17
2023-01-17T17:38:02.009Z,27.38
2023-01-17T17:40:29.159Z,12.75
2023-01-17T17:42:56.077Z,12.45
2023-01-17T17:45:23.030Z,16.67
2023-01-17T17:47:54.438Z,13.35
2023-01-17T17:50:21.629Z,12.60
2023-01-17T17:52:49.341Z,13.43
2023-01-17T17:55:19.046Z,16.92
2023-01-17T17:57:46.518Z,11.90
2023-01-17T18:00:13.892Z,16.65
2023-01-17T18:02:40.860Z,14.63
2023-01-17T18:05:08.196Z,17.58
2023-01-17T18:07:35.452Z,14.85
2023-01-17T18:10:03.792Z,18.38
2023-01-17T18:12:30.949Z,14.30
2023-01-17T18:14:58.268Z,18.58
2023-01-17T18:17:25.194Z,18.40
2023-01-17T18:19:52.665Z,20.00
2023-01-17T18:22:19.649Z,23.27
2023-01-17T18:24:46.966Z,21.63
2023-01-17T18:27:14.255Z,21.08
2023-01-17T18:29:41.391Z,19.95
2023-01-17T18:32:08.681Z,22.70
2023-01-17T18:34:39.271Z,27.00
2023-01-17T18:37:06.282Z,21.15
2023-01-17T18:39:33.984Z,28.52
2023-01-17T18:42:01.022Z,24.88
2023-01-17T18:44:28.238Z,21.85
2023-01-17T18:46:56.024Z,21.40
2023-01-17T18:49:23.178Z,21.55
2023-01-17T18:51:51.537Z,20.90
2023-01-17T18:54:20.151Z,24.42
2023-01-17T18:56:47.266Z,20.70
2023-01-17T18:59:16.258Z,21.23
2023-01-17T19:01:43.794Z,28.25
2023-01-17T19:04:13.282Z,31.95
2023-01-17T19:06:43.019Z,27.13
2023-01-17T19:11:38.154Z,27.27
2023-01-17T19:14:06.760Z,28.65
2023-01-17T19:16:39.631Z,28.40
2023-01-17T19:19:15.169Z,28.33
2023-01-17T19:21:42.782Z,26.65
2023-01-17T19:24:13.317Z,25.35
2023-01-17T19:26:41.101Z,24.30
2023-01-17T19:29:08.527Z,24.42
2023-01-17T19:31:43.162Z,25.92
2023-01-17T19:34:11.650Z,40.00
2023-01-17T19:36:39.315Z,26.27
2023-01-17T19:39:09.465Z,24.33
2023-01-17T19:41:42.139Z,23.40
2023-01-17T19:44:13.407Z,16.48
2023-01-17T19:46:40.557Z,9.68
2023-01-17T19:49:09.345Z,10.73
2023-01-17T19:51:40.081Z,13.13
2023-01-17T19:54:08.391Z,14.18
2023-01-17T19:56:35.515Z,13.27
2023-01-17T19:59:03.717Z,10.15
2023-01-17T20:01:32.697Z,10.60
2023-01-17T20:04:01.261Z,7.35
2023-01-17T20:06:31.069Z,6.78
2023-01-17T20:08:58.125Z,7.57
2023-01-17T20:11:27.927Z,6.25
2023-01-17T20:13:58.007Z,7.40
2023-01-17T20:16:27.278Z,6.43
2023-01-17T20:21:24.729Z,5.38
2023-01-17T20:23:54.476Z,6.78
2023-01-17T20:26:31.680Z,8.93
2023-01-17T20:28:58.658Z,6.88
2023-01-17T20:31:26.177Z,9.00
2023-01-17T20:33:55.297Z,7.82
2023-01-17T20:36:24.826Z,6.97
2023-01-17T20:38:53.431Z,8.10
2023-01-17T20:41:23.701Z,4.97
2023-01-17T20:43:55.354Z,8.02
2023-01-17T20:46:27.297Z,8.70
2023-01-17T20:48:57.958Z,6.88
2023-01-17T20:51:27.454Z,10.60
2023-01-17T20:54:02.803Z,5.78
2023-01-17T20:56:34.634Z,7.28
2023-01-17T20:59:06.329Z,6.55
2023-01-17T21:01:34.951Z,5.40
2023-01-17T21:04:03.463Z,5.72
2023-01-17T21:06:31.422Z,5.80
2023-01-17T21:08:59.841Z,3.75
2023-01-17T21:11:27.833Z,6.82
2023-01-17T21:13:55.212Z,9.15
2023-01-17T21:16:23.195Z,3.53
2023-01-17T21:18:51.939Z,5.15
2023-01-17T21:21:24.340Z,5.38
2023-01-17T21:23:53.813Z,6.55
2023-01-17T21:26:22.875Z,4.38
2023-01-17T21:28:50.917Z,5.03
2023-01-17T21:31:25.365Z,2.55
2023-01-17T21:33:53.702Z,3.30
2023-01-17T21:36:23.245Z,3.90
2023-01-17T21:38:52.367Z,4.38
2023-01-17T21:41:25.589Z,4.15
2023-01-17T21:44:03.368Z,2.38
2023-01-17T21:46:30.862Z,5.63
2023-01-17T21:48:57.973Z,2.80
2023-01-17T21:51:45.471Z,7.07
2023-01-17T21:54:12.644Z,7.85
2023-01-17T21:56:58.241Z,7.25
2023-01-17T21:59:25.377Z,2.75
2023-01-17T22:01:52.488Z,5.25
2023-01-17T22:04:21.927Z,4.20
2023-01-17T22:06:49.011Z,5.57
2023-01-17T22:09:16.071Z,0.98
2023-01-17T22:11:43.209Z,3.70
2023-01-17T22:14:10.322Z,3.78
2023-01-17T22:16:37.320Z,6.63
2023-01-17T22:19:04.413Z,4.53
2023-01-17T22:21:32.698Z,4.00
2023-01-17T22:24:00.327Z,0.82
2023-01-17T22:26:30.329Z,3.55
2023-01-17T22:29:00.942Z,4.43
2023-01-17T22:31:28.811Z,2.85
2023-01-17T22:34:02.489Z,5.75
2023-01-17T22:36:33.875Z,1.80
2023-01-17T22:39:03.976Z,6.72
2023-01-17T22:41:32.989Z,3.55
2023-01-17T22:44:05.572Z,13.55
2023-01-17T22:46:35.759Z,3.40
2023-01-17T22:49:05.892Z,2.40
2023-01-17T22:51:33.003Z,1.60
2023-01-17T22:54:01.329Z,6.82
2023-01-17T22:56:32.089Z,6.38
2023-01-17T22:59:00.969Z,2.17
2023-01-17T23:01:33.015Z,4.18
2023-01-17T23:04:03.694Z,1.92
2023-01-17T23:06:37.093Z,2.42
2023-01-17T23:09:10.893Z,4.35
2023-01-17T23:11:42.490Z,3.72
2023-01-17T23:14:25.660Z,3.45
2023-01-17T23:17:12.811Z,8.20
2023-01-17T23:19:47.909Z,1.13
2023-01-17T23:22:24.282Z,5.28
2023-01-17T23:25:00.652Z,4.10
2023-01-17T23:27:58.569Z,2.33
2023-01-17T23:30:29.194Z,1.95
2023-01-17T23:32:59.393Z,2.42
2023-01-17T23:35:29.904Z,3.60
2023-01-17T23:38:16.319Z,2.42
2023-01-17T23:40:43.936Z,2.35
2023-01-17T23:43:23.365Z,2.08
2023-01-17T23:48:19.142Z,2.63
2023-01-17T23:50:47.822Z,3.10
2023-01-17T23:53:24.010Z,3.30
2023-01-17T23:55:53.798Z,2.33
2023-01-17T23:58:23.982Z,5.43
